Scott, Ohio
Current Conditions -  °F | °C
As of 7:54 AM on Wednesday 26 Nov 2014 (Local Time) from KFWA Reporting Station
Overcast Overcast  
Wind Chill: 19°   Ceiling: 1400
Heat Index: 25°   Visibility: 8mi
Dew Point: 20°   Wind: 5mph
Humidity: 81%   Direction: 60°ENE
Pressure: 30.17"   Gusts: NA
Location:  40.99°N, 84.58°W
Report Text: KFWA 261254Z 06004KT 8SM OVC014 M04/M07 A3017 RMK AO2 SNB35E45 SLP226 P0000 T10391067
Loading
Personal Weather Stations






























Interactive Weather Map New forecast layout! Learn more

10-Day Weather Forecast

Advertisements
Track Severe Weather on mobile